createdAt,value
2023-02-16T00:01:51.715Z,5.70
2023-02-16T00:04:21.310Z,5.70
2023-02-16T00:06:49.059Z,5.60
2023-02-16T00:09:15.892Z,5.60
2023-02-16T00:12:01.255Z,5.60
2023-02-16T00:14:28.759Z,5.50
2023-02-16T00:16:57.265Z,5.50
2023-02-16T00:19:24.031Z,5.50
2023-02-16T00:21:53.030Z,5.50
2023-02-16T00:24:19.934Z,5.40
2023-02-16T00:26:47.187Z,5.40
2023-02-16T00:29:27.891Z,5.40
2023-02-16T00:31:56.274Z,5.40
2023-02-16T00:34:32.954Z,5.30
2023-02-16T00:37:05.730Z,5.30
2023-02-16T00:39:33.599Z,5.30
2023-02-16T00:42:03.461Z,5.20
2023-02-16T00:44:30.188Z,5.20
2023-02-16T00:46:57.032Z,5.20
2023-02-16T00:49:23.889Z,5.20
2023-02-16T00:51:50.713Z,5.20
2023-02-16T00:54:17.519Z,5.20
2023-02-16T00:56:45.056Z,5.20
2023-02-16T00:59:22.783Z,5.20
2023-02-16T01:01:49.845Z,5.10
2023-02-16T01:04:22.879Z,5.10
2023-02-16T01:07:08.644Z,5.10
2023-02-16T01:09:53.941Z,5.10
2023-02-16T01:12:21.591Z,5.10
2023-02-16T01:14:52.460Z,5.10
2023-02-16T01:17:19.298Z,5.10
2023-02-16T01:19:46.159Z,5.00
2023-02-16T01:22:12.998Z,5.00
2023-02-16T01:24:39.816Z,5.10
2023-02-16T01:27:11.263Z,5.00
2023-02-16T01:29:38.120Z,5.00
2023-02-16T01:32:05.057Z,5.00
2023-02-16T01:34:32.053Z,5.00
2023-02-16T01:36:58.816Z,5.00
2023-02-16T01:39:25.625Z,5.00
2023-02-16T01:42:16.720Z,5.00
2023-02-16T01:44:50.310Z,4.90
2023-02-16T01:47:40.331Z,4.90
2023-02-16T01:50:22.358Z,4.90
2023-02-16T01:52:58.205Z,4.90
2023-02-16T01:55:31.878Z,4.90
2023-02-16T01:58:23.404Z,4.90
2023-02-16T02:00:53.293Z,4.90
2023-02-16T02:03:46.132Z,4.80
2023-02-16T02:06:16.326Z,4.80
2023-02-16T02:08:44.389Z,4.80
2023-02-16T02:11:15.877Z,4.80
2023-02-16T02:13:56.665Z,4.80
2023-02-16T02:16:25.774Z,4.80
2023-02-16T02:18:52.648Z,4.80
2023-02-16T02:21:59.737Z,4.80
2023-02-16T02:25:07.908Z,4.70
2023-02-16T02:27:41.108Z,4.80
2023-02-16T02:30:42.237Z,4.80
2023-02-16T02:33:21.366Z,4.70
2023-02-16T02:35:58.030Z,4.70
2023-02-16T02:38:28.097Z,4.70
2023-02-16T02:41:04.241Z,4.70
2023-02-16T02:43:34.156Z,4.70
2023-02-16T02:46:10.952Z,4.70
2023-02-16T02:48:37.827Z,4.80
2023-02-16T02:51:29.282Z,4.80
2023-02-16T02:54:29.883Z,4.80
2023-02-16T02:57:22.374Z,4.80
2023-02-16T03:00:15.272Z,4.70
2023-02-16T03:02:43.631Z,4.80
2023-02-16T03:05:11.879Z,4.80
2023-02-16T03:07:48.165Z,4.70
2023-02-16T03:10:42.364Z,4.70
2023-02-16T03:13:16.847Z,4.80
2023-02-16T03:15:45.414Z,4.80
2023-02-16T03:18:31.278Z,4.80
2023-02-16T03:21:17.722Z,4.70
2023-02-16T03:24:04.211Z,4.80
2023-02-16T03:26:50.568Z,4.80
2023-02-16T03:29:24.841Z,4.80
2023-02-16T03:31:53.166Z,4.80
2023-02-16T03:34:21.308Z,4.80
2023-02-16T03:36:58.435Z,4.80
2023-02-16T03:39:26.438Z,4.80
2023-02-16T03:41:54.766Z,4.80
2023-02-16T03:44:21.666Z,4.80
2023-02-16T03:46:51.273Z,4.80
2023-02-16T03:49:19.028Z,4.90
2023-02-16T03:51:45.880Z,4.80
2023-02-16T03:54:13.055Z,4.80
2023-02-16T03:56:39.900Z,4.90
2023-02-16T03:59:06.713Z,4.80
2023-02-16T04:01:33.597Z,4.90
2023-02-16T04:04:00.536Z,4.90
2023-02-16T04:06:27.454Z,4.90
2023-02-16T04:08:54.774Z,4.90
2023-02-16T04:11:40.208Z,4.90
2023-02-16T04:14:07.110Z,5.00
2023-02-16T04:16:33.994Z,5.00
2023-02-16T04:19:00.840Z,5.00
2023-02-16T04:21:27.743Z,5.00
2023-02-16T04:23:54.522Z,5.00
2023-02-16T04:26:21.272Z,5.00
2023-02-16T04:28:48.058Z,5.00
2023-02-16T04:31:14.921Z,5.00
2023-02-16T04:33:41.976Z,5.00
2023-02-16T04:36:09.284Z,5.00
2023-02-16T04:38:36.117Z,5.00
2023-02-16T04:41:03.201Z,5.00
2023-02-16T04:43:33.545Z,5.00
2023-02-16T04:46:00.668Z,5.00
2023-02-16T04:48:27.509Z,5.10
2023-02-16T04:50:54.358Z,5.00
2023-02-16T04:53:21.266Z,5.00
2023-02-16T04:55:49.114Z,5.10
2023-02-16T04:58:16.830Z,5.00
2023-02-16T05:00:43.855Z,5.10
2023-02-16T05:03:11.201Z,5.10
2023-02-16T05:05:38.036Z,5.10
2023-02-16T05:08:04.882Z,5.10
2023-02-16T05:10:31.685Z,5.10
2023-02-16T05:13:17.073Z,5.10
2023-02-16T05:15:45.053Z,5.10
2023-02-16T05:18:12.119Z,5.10
2023-02-16T05:20:57.358Z,5.10
2023-02-16T05:23:24.116Z,5.10
2023-02-16T05:25:50.940Z,5.10
2023-02-16T05:28:17.901Z,5.20
2023-02-16T05:30:44.839Z,5.20
2023-02-16T05:33:11.680Z,5.20
2023-02-16T05:35:38.425Z,5.20
2023-02-16T05:38:05.193Z,5.20
2023-02-16T05:40:32.045Z,5.20
2023-02-16T05:42:58.839Z,5.30
2023-02-16T05:45:25.694Z,5.30
2023-02-16T05:47:53.191Z,5.30
2023-02-16T05:50:19.965Z,5.20
2023-02-16T05:52:46.768Z,5.20
2023-02-16T05:55:13.646Z,5.30
2023-02-16T05:57:40.582Z,5.30
2023-02-16T06:00:08.748Z,5.30
2023-02-16T06:02:35.708Z,5.30
2023-02-16T06:05:02.535Z,5.30
2023-02-16T06:07:29.382Z,5.40
2023-02-16T06:09:56.363Z,5.40
2023-02-16T06:12:23.126Z,5.40
2023-02-16T06:14:49.913Z,5.40
2023-02-16T06:17:16.690Z,5.40
2023-02-16T06:19:43.475Z,5.40
2023-02-16T06:22:10.309Z,5.40
2023-02-16T06:24:38.300Z,5.40
2023-02-16T06:27:05.103Z,5.40
2023-02-16T06:29:32.381Z,5.40
2023-02-16T06:31:59.449Z,5.40
2023-02-16T06:34:26.361Z,5.40
2023-02-16T06:36:53.166Z,5.40
2023-02-16T06:39:20.083Z,5.40
2023-02-16T06:41:46.861Z,5.50
2023-02-16T06:44:15.329Z,5.50
2023-02-16T06:46:44.350Z,5.40
2023-02-16T06:49:19.757Z,5.50
2023-02-16T06:51:47.882Z,5.40
2023-02-16T06:54:15.520Z,5.50
2023-02-16T06:56:42.468Z,5.50
2023-02-16T06:59:11.522Z,5.50
2023-02-16T07:01:38.424Z,5.50
2023-02-16T07:04:05.435Z,5.50
2023-02-16T07:06:32.288Z,5.50
2023-02-16T07:08:59.315Z,5.50
2023-02-16T07:11:26.121Z,5.50
2023-02-16T07:13:53.001Z,5.50
2023-02-16T07:16:19.972Z,5.50
2023-02-16T07:18:47.544Z,5.50
2023-02-16T07:21:14.784Z,5.60
2023-02-16T07:23:41.869Z,5.60
2023-02-16T07:26:09.152Z,5.60
2023-02-16T07:28:36.085Z,5.60
2023-02-16T07:31:08.398Z,5.60
2023-02-16T07:33:35.521Z,5.70
2023-02-16T07:36:02.478Z,5.70
2023-02-16T07:38:30.810Z,5.70
2023-02-16T07:40:58.044Z,5.70
2023-02-16T07:43:25.710Z,5.80
2023-02-16T07:45:52.797Z,5.80
2023-02-16T07:48:19.935Z,5.80
2023-02-16T07:50:46.728Z,5.80
2023-02-16T07:53:13.625Z,5.80
2023-02-16T07:55:44.426Z,5.90
2023-02-16T07:58:12.059Z,5.90
2023-02-16T08:00:39.486Z,5.90
2023-02-16T08:03:06.373Z,5.90
2023-02-16T08:05:34.222Z,5.90
2023-02-16T08:08:01.030Z,5.90
2023-02-16T08:10:27.829Z,6.00
2023-02-16T08:12:54.728Z,6.00
2023-02-16T08:15:22.006Z,6.00
2023-02-16T08:17:49.432Z,6.10
2023-02-16T08:20:16.262Z,6.20
2023-02-16T08:22:43.616Z,6.20
2023-02-16T08:25:11.658Z,6.20
2023-02-16T08:27:38.620Z,6.20
2023-02-16T08:30:06.192Z,6.20
2023-02-16T08:32:33.451Z,6.20
2023-02-16T08:35:00.779Z,6.20
2023-02-16T08:37:28.685Z,6.20
2023-02-16T08:39:56.238Z,6.20
2023-02-16T08:42:23.131Z,6.20
2023-02-16T08:44:49.965Z,6.30
2023-02-16T08:47:20.164Z,6.30
2023-02-16T08:49:47.769Z,6.30
2023-02-16T08:52:14.719Z,6.30
2023-02-16T08:54:41.664Z,6.30
2023-02-16T08:57:08.636Z,6.30
2023-02-16T08:59:35.494Z,6.30
2023-02-16T09:02:02.564Z,6.30
2023-02-16T09:04:29.764Z,6.30
2023-02-16T09:06:58.093Z,6.40
2023-02-16T09:09:26.620Z,6.40
2023-02-16T09:11:53.649Z,6.40
2023-02-16T09:14:22.989Z,6.50
2023-02-16T09:16:50.051Z,6.50
2023-02-16T09:19:19.575Z,6.50
2023-02-16T09:21:47.424Z,6.60
2023-02-16T09:24:14.562Z,6.60
2023-02-16T09:26:43.026Z,6.70
2023-02-16T09:29:11.146Z,6.70
2023-02-16T09:31:39.674Z,6.70
2023-02-16T09:34:10.642Z,6.70
2023-02-16T09:36:38.030Z,6.70
2023-02-16T09:39:04.834Z,6.70
2023-02-16T09:41:40.677Z,6.70
2023-02-16T09:44:29.295Z,6.70
2023-02-16T09:46:59.087Z,6.70
2023-02-16T09:49:58.699Z,6.80
2023-02-16T09:52:31.478Z,6.80
2023-02-16T09:54:59.723Z,6.80
2023-02-16T09:57:42.034Z,6.90
2023-02-16T10:00:23.431Z,6.90
2023-02-16T10:02:59.774Z,6.90
2023-02-16T10:05:30.211Z,7.00
2023-02-16T10:08:02.268Z,7.00
2023-02-16T10:10:44.008Z,7.10
2023-02-16T10:13:19.368Z,7.10
2023-02-16T10:15:46.937Z,7.20
2023-02-16T10:18:24.664Z,7.20
2023-02-16T10:20:53.505Z,7.30
2023-02-16T10:23:27.458Z,7.30
2023-02-16T10:26:02.776Z,7.40
2023-02-16T10:28:40.966Z,7.40
2023-02-16T10:31:18.575Z,7.50
2023-02-16T10:34:01.600Z,7.50
2023-02-16T10:37:16.666Z,7.60
2023-02-16T10:40:14.555Z,7.70
2023-02-16T10:43:03.213Z,7.80
2023-02-16T10:45:36.897Z,7.90
2023-02-16T10:48:03.876Z,7.90
2023-02-16T10:50:35.966Z,8.00
2023-02-16T10:53:08.871Z,8.00
2023-02-16T10:55:37.961Z,8.10
2023-02-16T10:58:04.909Z,8.10
2023-02-16T11:00:46.544Z,8.20
2023-02-16T11:03:15.297Z,8.20
2023-02-16T11:05:42.504Z,8.20
2023-02-16T11:08:12.892Z,8.20
2023-02-16T11:10:43.138Z,8.30
2023-02-16T11:13:35.448Z,8.40
2023-02-16T11:16:10.209Z,8.40
2023-02-16T11:18:39.286Z,8.60
2023-02-16T11:21:07.806Z,8.70
2023-02-16T11:23:40.180Z,8.70
2023-02-16T11:26:10.518Z,8.80
2023-02-16T11:28:44.136Z,9.00
2023-02-16T11:31:26.955Z,9.10
2023-02-16T11:34:14.208Z,9.10
2023-02-16T11:36:42.852Z,9.20
2023-02-16T11:39:15.639Z,9.30
2023-02-16T11:41:51.964Z,9.40
2023-02-16T11:44:31.593Z,9.50
2023-02-16T11:47:00.665Z,9.60
2023-02-16T11:49:27.772Z,9.70
2023-02-16T11:51:54.639Z,9.70
2023-02-16T11:54:21.753Z,9.70
2023-02-16T11:57:04.831Z,9.80
2023-02-16T11:59:36.131Z,9.80
2023-02-16T12:02:30.766Z,9.80
2023-02-16T12:05:15.879Z,9.80
2023-02-16T12:08:07.290Z,10.00
2023-02-16T12:11:11.511Z,10.00
2023-02-16T12:14:03.272Z,10.10
2023-02-16T12:16:33.174Z,10.20
2023-02-16T12:19:31.182Z,10.30
2023-02-16T12:22:04.336Z,10.40
2023-02-16T12:25:04.300Z,10.40
2023-02-16T12:27:49.506Z,10.60
2023-02-16T12:30:52.796Z,10.60
2023-02-16T12:33:19.654Z,10.70
2023-02-16T12:36:03.626Z,10.70
2023-02-16T12:38:33.512Z,10.70
2023-02-16T12:41:25.172Z,10.80
2023-02-16T12:43:54.304Z,10.90
2023-02-16T12:46:55.535Z,11.00
2023-02-16T12:49:25.771Z,11.00
2023-02-16T12:51:55.116Z,11.10
2023-02-16T12:54:25.304Z,11.30
2023-02-16T12:57:01.707Z,11.40
2023-02-16T12:59:41.946Z,11.50
2023-02-16T13:02:31.887Z,11.60
2023-02-16T13:05:14.955Z,11.60
2023-02-16T13:07:52.127Z,11.70
2023-02-16T13:10:33.042Z,11.70
2023-02-16T13:13:06.649Z,11.70
2023-02-16T13:15:37.257Z,11.80
2023-02-16T13:18:17.221Z,11.90
2023-02-16T13:20:49.033Z,11.80
2023-02-16T13:23:54.238Z,11.90
2023-02-16T13:26:34.637Z,12.00
2023-02-16T13:29:33.491Z,12.00
2023-02-16T13:32:03.239Z,12.00
2023-02-16T13:34:48.486Z,12.10
2023-02-16T13:37:31.321Z,12.10
2023-02-16T13:40:18.416Z,12.10
2023-02-16T13:43:11.905Z,12.20
2023-02-16T13:45:41.945Z,12.20
2023-02-16T13:48:22.155Z,12.20
2023-02-16T13:50:56.342Z,12.30
2023-02-16T13:53:23.550Z,12.40
2023-02-16T13:56:17.752Z,12.30
2023-02-16T13:58:44.649Z,12.40
2023-02-16T14:01:38.972Z,12.40
2023-02-16T14:04:13.172Z,12.40
2023-02-16T14:06:42.762Z,12.30
2023-02-16T14:09:12.771Z,12.30
2023-02-16T14:11:53.149Z,12.40
2023-02-16T14:14:32.499Z,12.40
2023-02-16T14:17:14.704Z,12.40
2023-02-16T14:19:53.543Z,12.40
2023-02-16T14:22:44.242Z,12.40
2023-02-16T14:25:21.101Z,12.40
2023-02-16T14:27:53.346Z,12.40
2023-02-16T14:30:32.559Z,12.40
2023-02-16T14:33:13.114Z,12.30
2023-02-16T14:35:43.125Z,12.30
2023-02-16T14:38:19.494Z,12.40
2023-02-16T14:40:53.274Z,12.40
2023-02-16T14:43:47.229Z,12.40
2023-02-16T14:46:47.785Z,12.40
2023-02-16T14:49:36.337Z,12.40
2023-02-16T14:52:15.647Z,12.40
2023-02-16T14:55:19.949Z,12.40
2023-02-16T14:57:53.152Z,12.40
2023-02-16T15:00:31.334Z,12.40
2023-02-16T15:03:26.678Z,12.30
2023-02-16T15:06:02.300Z,12.30
2023-02-16T15:08:35.234Z,12.30
2023-02-16T15:11:13.670Z,12.30
2023-02-16T15:13:40.736Z,12.30
2023-02-16T15:16:13.804Z,12.30
2023-02-16T15:18:44.914Z,12.30
2023-02-16T15:21:28.571Z,12.30
2023-02-16T15:23:58.088Z,12.20
2023-02-16T15:26:27.396Z,12.20
2023-02-16T15:29:13.914Z,12.20
2023-02-16T15:31:40.868Z,12.20
2023-02-16T15:34:13.940Z,12.10
2023-02-16T15:36:43.492Z,12.20
2023-02-16T15:39:48.393Z,12.10
2023-02-16T15:42:26.499Z,12.10
2023-02-16T15:44:53.457Z,12.10
2023-02-16T15:47:25.917Z,12.10
2023-02-16T15:49:54.320Z,12.00
2023-02-16T15:52:29.407Z,12.00
2023-02-16T15:54:56.883Z,12.00
2023-02-16T15:57:32.569Z,12.00
2023-02-16T16:00:01.516Z,11.90
2023-02-16T16:02:31.398Z,11.90
2023-02-16T16:05:01.115Z,11.90
2023-02-16T16:07:35.790Z,11.90
2023-02-16T16:10:11.681Z,11.80
2023-02-16T16:12:38.578Z,11.80
2023-02-16T16:15:06.725Z,11.80
2023-02-16T16:17:35.917Z,11.80
2023-02-16T16:20:29.214Z,11.80
2023-02-16T16:23:05.201Z,11.80
2023-02-16T16:25:44.892Z,11.80
2023-02-16T16:28:37.924Z,11.80
2023-02-16T16:31:40.037Z,11.80
2023-02-16T16:34:09.951Z,11.80
2023-02-16T16:36:52.405Z,11.80
2023-02-16T16:39:19.198Z,11.80
2023-02-16T16:42:01.546Z,11.70
2023-02-16T16:44:36.036Z,11.70
2023-02-16T16:47:33.616Z,11.70
2023-02-16T16:50:09.526Z,11.70
2023-02-16T16:52:36.378Z,11.70
2023-02-16T16:55:27.174Z,11.70
2023-02-16T16:57:56.705Z,11.60
2023-02-16T17:00:25.688Z,11.60
2023-02-16T17:02:52.619Z,11.60
2023-02-16T17:05:19.650Z,11.60
2023-02-16T17:07:50.181Z,11.60
2023-02-16T17:10:18.989Z,11.60
2023-02-16T17:12:48.132Z,11.60
2023-02-16T17:15:28.541Z,11.50
2023-02-16T17:17:55.663Z,11.50
2023-02-16T17:20:22.476Z,11.50
2023-02-16T17:22:49.331Z,11.50
2023-02-16T17:25:16.408Z,11.40
2023-02-16T17:27:43.392Z,11.40
2023-02-16T17:30:11.279Z,11.40
2023-02-16T17:32:38.231Z,11.40
2023-02-16T17:35:05.671Z,11.30
2023-02-16T17:37:33.573Z,11.30
2023-02-16T17:40:00.416Z,11.30
2023-02-16T17:42:28.318Z,11.20
2023-02-16T17:44:55.208Z,11.30
2023-02-16T17:47:22.027Z,11.30
2023-02-16T17:49:49.281Z,11.20
2023-02-16T17:52:16.213Z,11.20
2023-02-16T17:54:43.095Z,11.10
2023-02-16T17:57:10.539Z,11.10
2023-02-16T17:59:37.819Z,11.10
2023-02-16T18:02:04.813Z,11.10
2023-02-16T18:04:31.952Z,11.00
2023-02-16T18:06:58.765Z,11.00
2023-02-16T18:09:25.674Z,11.00
2023-02-16T18:11:52.647Z,11.00
2023-02-16T18:14:19.528Z,11.00
2023-02-16T18:16:51.362Z,11.00
2023-02-16T18:19:20.398Z,11.00
2023-02-16T18:21:47.299Z,11.00
2023-02-16T18:24:14.702Z,11.00
2023-02-16T18:26:41.674Z,10.90
2023-02-16T18:29:09.852Z,10.90
2023-02-16T18:31:36.854Z,10.90
2023-02-16T18:34:05.998Z,10.90
2023-02-16T18:36:32.949Z,10.90
2023-02-16T18:38:59.789Z,10.80
2023-02-16T18:41:26.800Z,10.80
2023-02-16T18:43:53.670Z,10.80
2023-02-16T18:46:20.749Z,10.80
2023-02-16T18:48:47.684Z,10.80
2023-02-16T18:51:17.481Z,10.80
2023-02-16T18:53:44.976Z,10.80
2023-02-16T18:56:12.539Z,10.80
2023-02-16T18:58:39.537Z,10.80
2023-02-16T19:01:35.941Z,10.80
2023-02-16T19:04:03.653Z,10.80
2023-02-16T19:06:30.616Z,10.80
2023-02-16T19:08:59.076Z,10.80
2023-02-16T19:11:28.144Z,10.70
2023-02-16T19:13:55.004Z,10.70
2023-02-16T19:16:22.036Z,10.70
2023-02-16T19:18:49.109Z,10.80
2023-02-16T19:21:16.016Z,10.80
2023-02-16T19:23:43.524Z,10.80
2023-02-16T19:26:13.015Z,10.70
2023-02-16T19:28:40.383Z,10.70
2023-02-16T19:31:15.108Z,10.70
2023-02-16T19:33:42.081Z,10.80
2023-02-16T19:36:10.756Z,10.80
2023-02-16T19:38:37.787Z,10.80
2023-02-16T19:41:10.102Z,10.80
2023-02-16T19:43:36.990Z,10.80
2023-02-16T19:46:05.140Z,10.80
2023-02-16T19:48:32.218Z,10.80
2023-02-16T19:51:00.772Z,10.80
2023-02-16T19:53:28.183Z,10.80
2023-02-16T19:55:55.206Z,10.80
2023-02-16T19:58:22.787Z,10.80
2023-02-16T20:00:49.835Z,10.80
2023-02-16T20:03:17.306Z,10.80
2023-02-16T20:05:44.630Z,10.80
2023-02-16T20:08:11.550Z,10.80
2023-02-16T20:10:43.238Z,10.80
2023-02-16T20:13:10.524Z,10.80
2023-02-16T20:15:37.461Z,10.80
2023-02-16T20:18:05.975Z,10.80
2023-02-16T20:20:32.874Z,10.80
2023-02-16T20:22:59.878Z,10.80
2023-02-16T20:25:27.125Z,10.90
2023-02-16T20:27:56.355Z,10.80
2023-02-16T20:30:25.627Z,10.80
2023-02-16T20:32:52.633Z,10.90
2023-02-16T20:35:19.554Z,10.90
2023-02-16T20:37:46.429Z,10.80
2023-02-16T20:40:13.887Z,10.90
2023-02-16T20:42:40.742Z,10.80
2023-02-16T20:45:07.978Z,10.80
2023-02-16T20:47:34.852Z,10.80
2023-02-16T20:50:01.732Z,10.90
2023-02-16T20:52:28.642Z,10.80
2023-02-16T20:54:55.557Z,10.80
2023-02-16T20:57:27.152Z,10.90
2023-02-16T20:59:55.225Z,10.90
2023-02-16T21:02:22.181Z,10.90
2023-02-16T21:04:49.082Z,10.80
2023-02-16T21:07:16.753Z,10.90
2023-02-16T21:09:44.147Z,10.90
2023-02-16T21:12:10.987Z,10.90
2023-02-16T21:14:37.925Z,10.90
2023-02-16T21:17:04.801Z,10.90
2023-02-16T21:19:31.786Z,10.90
2023-02-16T21:21:58.544Z,10.90
2023-02-16T21:24:25.362Z,10.90
2023-02-16T21:26:52.183Z,10.90
2023-02-16T21:29:19.069Z,10.90
2023-02-16T21:31:46.000Z,10.90
2023-02-16T21:34:13.040Z,10.90
2023-02-16T21:36:39.968Z,10.90
2023-02-16T21:39:06.805Z,10.80
2023-02-16T21:41:33.653Z,10.90
2023-02-16T21:44:01.015Z,10.90
2023-02-16T21:46:30.463Z,10.90
2023-02-16T21:48:57.773Z,10.90
2023-02-16T21:51:28.386Z,10.90
2023-02-16T21:53:56.037Z,10.90
2023-02-16T21:56:38.939Z,10.90
2023-02-16T21:59:08.310Z,10.90
2023-02-16T22:01:39.795Z,10.90
2023-02-16T22:04:06.799Z,10.90
2023-02-16T22:06:39.676Z,10.90
2023-02-16T22:09:10.821Z,10.90
2023-02-16T22:11:37.920Z,10.90
2023-02-16T22:14:05.013Z,10.90
2023-02-16T22:16:32.790Z,10.90
2023-02-16T22:19:03.131Z,10.80
2023-02-16T22:21:31.194Z,10.90
2023-02-16T22:23:58.364Z,10.80
2023-02-16T22:26:27.948Z,10.90
2023-02-16T22:28:55.168Z,10.80
2023-02-16T22:31:24.371Z,10.80
2023-02-16T22:33:55.862Z,10.90
2023-02-16T22:36:22.802Z,10.90
2023-02-16T22:38:49.611Z,10.80
2023-02-16T22:41:16.490Z,10.80
2023-02-16T22:43:43.384Z,10.80
2023-02-16T22:46:13.932Z,10.80
2023-02-16T22:48:40.963Z,10.80
2023-02-16T22:51:11.349Z,10.80
2023-02-16T22:53:38.384Z,10.80
2023-02-16T22:56:07.374Z,10.80
2023-02-16T22:58:36.208Z,10.80
2023-02-16T23:01:03.822Z,10.80
2023-02-16T23:03:31.218Z,10.80
2023-02-16T23:05:57.997Z,10.70
2023-02-16T23:08:24.805Z,10.70
2023-02-16T23:11:00.966Z,10.70
2023-02-16T23:13:29.319Z,10.70
2023-02-16T23:15:57.100Z,10.70
2023-02-16T23:18:24.941Z,10.70
2023-02-16T23:20:52.050Z,10.60
2023-02-16T23:23:18.892Z,10.60
2023-02-16T23:25:47.900Z,10.60
2023-02-16T23:28:15.783Z,10.60
2023-02-16T23:30:44.862Z,10.60
2023-02-16T23:33:12.203Z,10.60
2023-02-16T23:35:40.463Z,10.60
2023-02-16T23:38:09.814Z,10.60
2023-02-16T23:40:36.599Z,10.60
2023-02-16T23:43:03.529Z,10.60
2023-02-16T23:45:30.549Z,10.60
2023-02-16T23:47:57.354Z,10.60
2023-02-16T23:50:24.239Z,10.60
2023-02-16T23:52:51.078Z,10.60
2023-02-16T23:55:17.997Z,10.60
2023-02-16T23:57:45.036Z,10.60
